Time;durP1;ratioP1;P1;durP2;ratioP2;P2;SDS_P1;SDS_P2;PMS_P1;PMS_P2;Temp;Humidity;BMP_temperature;BMP_pressure;BME280_temperature;BME280_humidity;BME280_pressure;Samples;Min_cycle;Max_cycle;Signal;HPM_P1;HPM_P2
2020/12/01 00:00:36;;;;;;;162.95;104.88;;;16.80;46.10;;;;;;5024986;28;20215;-62
2020/12/01 00:03:02;;;;;;;161.43;104.65;;;16.80;46.20;;;;;;5028734;28;20652;-61
2020/12/01 00:05:28;;;;;;;160.50;102.88;;;16.80;46.80;;;;;;5019823;28;20235;-61
2020/12/01 00:07:54;;;;;;;149.15;97.28;;;16.80;46.80;;;;;;5021175;28;20176;-62
2020/12/01 00:10:21;;;;;;;145.98;96.10;;;16.90;47.00;;;;;;5020126;28;20192;-60
2020/12/01 00:12:48;;;;;;;143.75;97.53;;;16.80;47.30;;;;;;5029305;28;20204;-61
2020/12/01 00:15:17;;;;;;;141.32;92.88;;;16.80;47.50;;;;;;5033796;28;20298;-61
2020/12/01 00:17:44;;;;;;;136.02;91.30;;;16.80;46.90;;;;;;5023545;28;20192;-61
2020/12/01 00:20:13;;;;;;;138.43;92.72;;;16.70;45.90;;;;;;5028593;28;20181;-61
2020/12/01 00:22:38;;;;;;;137.85;88.10;;;16.70;46.10;;;;;;5036546;28;20188;-61
2020/12/01 00:25:07;;;;;;;129.93;84.10;;;16.70;46.10;;;;;;5028830;28;20238;-60
2020/12/01 00:27:33;;;;;;;131.00;86.50;;;16.60;45.90;;;;;;5020470;28;20684;-60
2020/12/01 00:29:59;;;;;;;131.45;85.22;;;16.60;45.80;;;;;;5026485;28;20204;-61
2020/12/01 00:32:25;;;;;;;122.43;82.10;;;16.60;45.80;;;;;;5026847;28;20251;-61
2020/12/01 00:34:51;;;;;;;118.43;80.03;;;16.60;45.90;;;;;;5030689;28;21056;-61
2020/12/01 00:37:16;;;;;;;120.18;80.38;;;16.60;45.80;;;;;;5020479;28;20259;-60
2020/12/01 00:39:42;;;;;;;115.18;76.45;;;16.60;45.60;;;;;;5019904;28;20188;-61
2020/12/01 00:42:08;;;;;;;112.88;74.55;;;16.60;45.20;;;;;;5032158;28;20298;-60
2020/12/01 00:44:33;;;;;;;112.25;74.93;;;16.50;45.50;;;;;;5038271;28;20220;-61
2020/12/01 00:46:59;;;;;;;110.13;72.72;;;16.50;45.60;;;;;;5034847;28;21550;-61
2020/12/01 00:49:26;;;;;;;106.60;72.13;;;16.50;45.60;;;;;;5026417;28;20865;-61
2020/12/01 00:51:55;;;;;;;104.95;68.80;;;16.50;45.60;;;;;;5027789;28;20188;-61
2020/12/01 00:54:21;;;;;;;100.53;67.95;;;16.40;45.60;;;;;;5018460;28;20549;-61
2020/12/01 00:56:48;;;;;;;104.28;68.90;;;16.40;45.90;;;;;;5027428;28;20212;-61
2020/12/01 00:59:14;;;;;;;93.53;63.88;;;16.40;45.50;;;;;;5026047;28;20548;-61
2020/12/01 01:01:48;;;;;;;92.10;62.33;;;16.40;45.40;;;;;;5034371;28;20183;-61
2020/12/01 01:04:13;;;;;;;89.22;61.33;;;16.30;45.90;;;;;;5018123;28;20282;-62
2020/12/01 01:06:39;;;;;;;85.75;57.80;;;16.30;45.80;;;;;;5028265;28;20211;-62
2020/12/01 01:09:06;;;;;;;86.53;58.53;;;16.30;45.60;;;;;;5022934;28;20874;-62
2020/12/01 01:11:32;;;;;;;85.05;57.45;;;16.30;45.70;;;;;;5032224;28;20668;-60
2020/12/01 01:13:59;;;;;;;86.38;57.92;;;16.30;45.50;;;;;;5036277;28;20211;-62
2020/12/01 01:16:25;;;;;;;83.25;55.40;;;16.30;45.60;;;;;;5019100;28;20204;-62
2020/12/01 01:18:52;;;;;;;78.43;52.15;;;16.30;45.70;;;;;;5019850;28;20570;-62
2020/12/01 01:21:18;;;;;;;78.85;53.58;;;16.30;45.70;;;;;;5024892;28;20198;-62
2020/12/01 01:23:44;;;;;;;74.57;50.47;;;16.30;45.80;;;;;;5029963;28;20192;-59
2020/12/01 01:26:10;;;;;;;77.20;50.20;;;16.30;45.50;;;;;;5017686;28;20981;-58
2020/12/01 01:28:35;;;;;;;70.72;48.22;;;16.30;45.70;;;;;;5019193;28;20196;-62
2020/12/01 01:31:01;;;;;;;72.03;46.85;;;16.20;45.70;;;;;;5021923;28;20187;-62
2020/12/01 01:33:27;;;;;;;68.28;46.05;;;16.20;45.60;;;;;;5023210;28;20218;-62
2020/12/01 01:35:54;;;;;;;64.75;42.47;;;16.20;45.50;;;;;;5019654;28;20228;-62
2020/12/01 01:38:20;;;;;;;61.88;42.05;;;16.20;45.90;;;;;;5026694;28;20675;-59
2020/12/01 01:40:46;;;;;;;63.95;42.95;;;16.20;45.70;;;;;;5034475;28;20191;-62
2020/12/01 01:43:12;;;;;;;62.60;40.85;;;16.20;45.60;;;;;;5026702;28;20180;-60
2020/12/01 01:45:40;;;;;;;57.72;40.40;;;16.20;45.90;;;;;;5026045;28;20229;-59
2020/12/01 01:48:32;;;;;;;60.88;40.30;;;16.20;45.80;;;;;;5026098;28;20226;-59
2020/12/01 01:51:04;;;;;;;56.58;38.03;;;16.20;45.50;;;;;;5026236;28;20204;-62
2020/12/01 01:53:33;;;;;;;55.30;37.70;;;16.10;45.90;;;;;;5032595;28;20313;-60
2020/12/01 01:56:02;;;;;;;57.45;36.63;;;16.10;45.80;;;;;;5038617;28;20199;-60
2020/12/01 01:58:35;;;;;;;51.47;36.45;;;16.20;45.70;;;;;;5031833;28;20198;-62
2020/12/01 02:01:14;;;;;;;52.47;36.80;;;16.20;45.80;;;;;;5017882;28;20176;-62
2020/12/01 02:03:40;;;;;;;51.40;35.50;;;16.20;45.30;;;;;;5026137;28;20188;-59
2020/12/01 02:06:16;;;;;;;46.08;31.33;;;16.10;45.50;;;;;;5018354;28;20212;-59
2020/12/01 02:08:45;;;;;;;47.53;32.72;;;16.10;46.00;;;;;;5027076;28;20993;-60
2020/12/01 02:11:11;;;;;;;47.03;31.92;;;16.10;45.90;;;;;;5018239;28;20184;-59
2020/12/01 02:14:00;;;;;;;43.20;29.70;;;16.10;45.90;;;;;;5027469;28;20222;-62
2020/12/01 02:16:26;;;;;;;42.38;30.55;;;16.10;45.90;;;;;;5019079;28;20204;-62
2020/12/01 02:18:52;;;;;;;41.17;30.00;;;16.10;45.70;;;;;;5019429;28;20291;-61
2020/12/01 02:21:24;;;;;;;39.33;27.92;;;16.10;45.80;;;;;;5032607;28;20651;-60
2020/12/01 02:23:49;;;;;;;40.00;28.02;;;16.10;45.50;;;;;;5020264;28;20185;-60
2020/12/01 02:26:15;;;;;;;39.15;26.70;;;16.10;45.90;;;;;;5027632;28;20231;-60
2020/12/01 02:28:41;;;;;;;36.08;25.92;;;16.10;45.90;;;;;;5027471;28;20376;-60
2020/12/01 02:31:06;;;;;;;38.53;26.58;;;16.10;45.90;;;;;;5026849;28;20334;-60
2020/12/01 02:33:32;;;;;;;38.22;25.27;;;16.10;45.80;;;;;;5026003;28;20216;-60
2020/12/01 02:35:58;;;;;;;38.25;24.13;;;16.10;46.00;;;;;;5036955;28;20207;-60
2020/12/01 02:38:23;;;;;;;32.47;24.05;;;16.10;45.90;;;;;;5037286;28;20211;-60
2020/12/01 02:40:51;;;;;;;32.67;23.35;;;16.00;45.80;;;;;;5019734;28;20188;-61
2020/12/01 02:43:17;;;;;;;33.33;22.65;;;16.10;46.00;;;;;;5031117;28;20257;-60
2020/12/01 02:45:43;;;;;;;28.38;21.63;;;16.00;45.70;;;;;;5020701;28;20215;-62
2020/12/01 02:48:09;;;;;;;30.05;22.75;;;16.00;46.10;;;;;;5021631;28;20180;-62
2020/12/01 02:50:34;;;;;;;29.70;21.60;;;16.00;46.20;;;;;;5021905;28;20215;-60
2020/12/01 02:53:00;;;;;;;28.75;21.00;;;16.00;45.80;;;;;;5017510;28;20831;-60
2020/12/01 02:55:26;;;;;;;27.80;20.13;;;16.00;46.00;;;;;;5018100;28;20265;-62
2020/12/01 02:57:51;;;;;;;27.90;19.50;;;16.00;46.00;;;;;;5036289;28;20199;-62
2020/12/01 03:00:17;;;;;;;24.70;18.15;;;16.00;46.00;;;;;;5032456;28;20190;-62
2020/12/01 03:02:43;;;;;;;25.13;18.60;;;16.00;46.00;;;;;;5019349;28;20652;-61
2020/12/01 03:05:08;;;;;;;26.23;19.10;;;16.00;46.20;;;;;;5034555;28;21022;-61
2020/12/01 03:07:34;;;;;;;24.63;17.52;;;15.90;46.00;;;;;;5018424;28;20211;-61
2020/12/01 03:10:00;;;;;;;25.20;18.13;;;15.90;46.10;;;;;;5034803;28;20240;-61
2020/12/01 03:12:25;;;;;;;23.35;17.85;;;16.00;46.10;;;;;;5016419;28;20196;-62
2020/12/01 03:14:51;;;;;;;23.27;17.08;;;15.90;46.10;;;;;;5018120;28;20939;-61
2020/12/01 03:17:17;;;;;;;21.95;16.30;;;15.90;46.10;;;;;;5022227;28;21106;-62
2020/12/01 03:19:42;;;;;;;21.60;16.10;;;15.90;46.20;;;;;;5029824;28;20530;-62
2020/12/01 03:22:08;;;;;;;20.80;16.00;;;15.90;46.20;;;;;;5021712;28;20189;-61
2020/12/01 03:24:34;;;;;;;21.33;15.18;;;15.90;46.70;;;;;;5021742;28;20249;-62
2020/12/01 03:26:59;;;;;;;21.25;15.15;;;15.90;46.40;;;;;;5038214;28;20208;-60
2020/12/01 03:29:25;;;;;;;20.15;15.38;;;15.90;46.10;;;;;;5021496;28;20623;-60
2020/12/01 03:31:50;;;;;;;19.85;14.65;;;15.90;46.30;;;;;;5031236;28;20299;-60
2020/12/01 03:34:16;;;;;;;20.80;13.75;;;15.90;46.10;;;;;;5040088;28;20231;-62
2020/12/01 03:36:44;;;;;;;18.58;13.98;;;15.90;46.10;;;;;;5037266;28;20210;-60
2020/12/01 03:39:09;;;;;;;18.83;13.60;;;15.80;46.10;;;;;;5021890;28;21046;-62
2020/12/01 03:41:35;;;;;;;18.92;14.20;;;15.80;46.00;;;;;;5030110;28;20195;-62
2020/12/01 03:44:00;;;;;;;17.17;14.02;;;15.80;46.50;;;;;;5020898;28;20188;-62
2020/12/01 03:46:26;;;;;;;18.80;13.55;;;15.80;46.30;;;;;;5027711;28;20225;-59
2020/12/01 03:48:52;;;;;;;18.40;13.73;;;15.80;46.40;;;;;;5022776;28;20590;-59
2020/12/01 03:51:17;;;;;;;16.63;12.25;;;15.80;46.20;;;;;;5013625;28;20199;-62
2020/12/01 03:53:43;;;;;;;16.60;12.00;;;15.80;46.30;;;;;;5029592;28;20207;-62
2020/12/01 03:56:09;;;;;;;15.52;11.48;;;15.80;46.30;;;;;;5020958;28;20204;-62
2020/12/01 03:58:35;;;;;;;15.50;12.05;;;15.80;46.30;;;;;;5029680;28;20195;-62
2020/12/01 04:01:00;;;;;;;16.23;11.93;;;15.80;46.30;;;;;;5031264;28;20919;-62
2020/12/01 04:03:26;;;;;;;15.00;10.75;;;15.80;46.30;;;;;;5034830;28;20687;-62
2020/12/01 04:05:52;;;;;;;16.17;12.05;;;15.80;46.30;;;;;;5030801;28;20249;-61
2020/12/01 04:08:18;;;;;;;16.00;12.10;;;15.80;46.40;;;;;;5040323;28;20213;-62
2020/12/01 04:10:43;;;;;;;16.30;11.45;;;15.80;46.40;;;;;;5040254;28;20191;-59
2020/12/01 04:13:09;;;;;;;14.57;11.07;;;15.80;46.30;;;;;;5036183;28;20198;-62
2020/12/01 04:15:35;;;;;;;14.88;10.77;;;15.80;46.20;;;;;;5018842;28;20319;-59
2020/12/01 04:18:01;;;;;;;12.57;9.57;;;15.80;46.50;;;;;;5037367;28;20743;-59
2020/12/01 04:20:26;;;;;;;13.05;9.13;;;15.80;46.40;;;;;;5020129;28;20298;-60
2020/12/01 04:22:52;;;;;;;13.02;10.13;;;15.70;46.40;;;;;;5018538;28;20203;-62
2020/12/01 04:25:21;;;;;;;13.75;9.77;;;15.70;46.40;;;;;;5019897;28;20295;-60
2020/12/01 04:27:47;;;;;;;13.10;10.38;;;15.80;46.40;;;;;;5021350;28;20198;-65
2020/12/01 04:30:14;;;;;;;13.25;10.10;;;15.70;46.40;;;;;;5030491;28;20567;-67
2020/12/01 04:32:39;;;;;;;12.25;9.15;;;15.70;46.50;;;;;;5032914;28;20214;-65
2020/12/01 04:35:06;;;;;;;12.18;10.45;;;15.70;46.30;;;;;;5024808;28;20215;-67
2020/12/01 04:37:32;;;;;;;14.23;10.95;;;15.70;46.50;;;;;;5025141;28;20184;-67
2020/12/01 04:39:58;;;;;;;12.93;10.07;;;15.70;46.60;;;;;;5023242;28;20199;-66
2020/12/01 04:42:24;;;;;;;12.55;10.57;;;15.70;46.60;;;;;;5035240;28;20299;-65
2020/12/01 04:44:56;;;;;;;11.93;9.90;;;15.70;46.70;;;;;;5034871;28;20312;-65
2020/12/01 04:47:31;;;;;;;12.73;10.18;;;15.70;46.50;;;;;;5032278;28;20225;-65
2020/12/01 04:50:11;;;;;;;11.15;9.18;;;15.70;46.50;;;;;;5037881;28;20199;-67
2020/12/01 04:53:04;;;;;;;12.23;9.60;;;15.60;46.50;;;;;;5028572;28;20207;-66
2020/12/01 04:55:48;;;;;;;11.93;9.73;;;15.60;46.70;;;;;;5025034;28;21038;-65
2020/12/01 04:58:49;;;;;;;12.32;9.88;;;15.60;46.50;;;;;;5025231;28;20187;-65
2020/12/01 05:01:42;;;;;;;10.52;8.90;;;15.60;46.60;;;;;;5038082;28;20750;-65
2020/12/01 05:04:34;;;;;;;10.80;9.35;;;15.60;46.70;;;;;;5024660;28;20202;-65
2020/12/01 05:07:40;;;;;;;11.98;9.77;;;15.60;46.60;;;;;;5029824;28;20215;-67
2020/12/01 05:10:11;;;;;;;11.23;9.35;;;15.50;46.60;;;;;;5032086;28;20187;-67
2020/12/01 05:12:41;;;;;;;11.43;9.65;;;15.50;46.80;;;;;;5032074;28;20245;-67
2020/12/01 05:15:14;;;;;;;11.70;9.30;;;15.50;46.80;;;;;;5027585;28;20243;-65
2020/12/01 05:18:09;;;;;;;9.98;8.77;;;15.50;46.80;;;;;;5020132;28;20191;-65
2020/12/01 05:20:52;;;;;;;11.40;9.20;;;15.50;46.70;;;;;;5046251;28;20297;-65
2020/12/01 05:23:25;;;;;;;11.55;9.13;;;15.50;46.70;;;;;;5025471;28;20190;-68
2020/12/01 05:26:05;;;;;;;11.38;9.45;;;15.50;46.70;;;;;;5037384;28;20262;-67
2020/12/01 05:28:44;;;;;;;11.15;9.15;;;15.50;46.70;;;;;;5034399;28;20268;-65
2020/12/01 05:31:10;;;;;;;11.48;9.23;;;15.50;46.60;;;;;;5019466;28;21111;-65
2020/12/01 05:33:36;;;;;;;10.02;8.75;;;15.50;46.90;;;;;;5027294;28;20222;-65
2020/12/01 05:36:19;;;;;;;11.15;9.00;;;15.50;47.40;;;;;;5027186;28;20208;-66
2020/12/01 05:38:56;;;;;;;11.48;9.63;;;15.50;46.90;;;;;;5033991;28;20195;-66
2020/12/01 05:41:30;;;;;;;10.10;8.38;;;15.50;47.70;;;;;;5033408;28;20273;-65
2020/12/01 05:44:02;;;;;;;10.55;9.18;;;15.50;47.80;;;;;;5019783;28;20195;-67
2020/12/01 05:46:41;;;;;;;13.95;10.38;;;15.50;47.60;;;;;;5034102;28;20284;-66
2020/12/01 05:49:29;;;;;;;14.25;12.30;;;15.40;47.50;;;;;;5038573;28;20201;-74
2020/12/01 05:52:19;;;;;;;25.95;21.17;;;15.50;48.60;;;;;;5017083;28;20191;-66
2020/12/01 05:54:48;;;;;;;35.70;30.65;;;15.70;49.20;;;;;;5016289;28;20224;-66
2020/12/01 05:57:25;;;;;;;41.10;31.60;;;15.70;49.10;;;;;;5026235;28;20301;-72
2020/12/01 06:00:04;;;;;;;38.63;33.40;;;15.70;48.70;;;;;;5026878;28;20192;-66
2020/12/01 06:03:14;;;;;;;36.88;31.95;;;15.60;48.00;;;;;;5025819;28;20198;-66
2020/12/01 06:05:43;;;;;;;40.15;33.15;;;15.60;47.60;;;;;;5027012;28;20206;-66
2020/12/01 06:08:48;;;;;;;41.63;35.08;;;15.60;47.20;;;;;;5021182;28;21337;-66
2020/12/01 06:11:19;;;;;;;39.10;31.45;;;15.60;46.90;;;;;;5031546;28;20844;-66
2020/12/01 06:13:46;;;;;;;39.55;32.42;;;15.60;48.30;;;;;;5022054;28;20220;-66
2020/12/01 06:16:24;;;;;;;40.53;31.50;;;15.60;49.00;;;;;;5014733;28;20377;-66
2020/12/01 06:18:58;;;;;;;39.08;29.58;;;15.60;48.90;;;;;;5001027;28;20210;-66
2020/12/01 06:21:35;;;;;;;34.28;27.63;;;15.70;49.00;;;;;;5013276;28;20192;-65
2020/12/01 06:24:00;;;;;;;31.17;25.88;;;15.70;49.20;;;;;;5014079;28;20184;-66
2020/12/01 06:26:58;;;;;;;30.75;25.30;;;15.70;49.00;;;;;;5011869;28;20902;-67
2020/12/01 06:29:46;;;;;;;30.92;24.73;;;15.80;49.10;;;;;;5019653;28;20196;-71
2020/12/01 06:32:39;;;;;;;27.77;21.77;;;15.70;48.30;;;;;;5012140;28;20790;-67
2020/12/01 06:35:13;;;;;;;29.05;22.30;;;15.80;48.00;;;;;;5019119;28;20858;-65
2020/12/01 06:38:09;;;;;;;27.17;22.73;;;15.60;47.90;;;;;;5018416;28;20583;-68
2020/12/01 06:40:41;;;;;;;28.67;22.40;;;15.60;47.70;;;;;;5018406;28;20206;-67
2020/12/01 06:43:15;;;;;;;28.55;21.55;;;15.60;47.50;;;;;;5007171;28;20987;-66
2020/12/01 06:45:45;;;;;;;26.50;20.50;;;15.70;47.80;;;;;;5006698;28;20307;-66
2020/12/01 06:48:21;;;;;;;33.27;27.83;;;15.70;47.70;;;;;;5014387;28;20260;-65
2020/12/01 06:50:57;;;;;;;42.95;32.42;;;15.80;46.70;;;;;;4998581;28;20603;-64
2020/12/01 06:53:35;;;;;;;45.20;33.00;;;15.70;46.70;;;;;;5011954;28;20202;-67
2020/12/01 06:56:20;;;;;;;38.85;29.95;;;15.70;47.10;;;;;;5017167;28;20313;-66
2020/12/01 06:58:49;;;;;;;35.38;28.23;;;15.70;46.50;;;;;;5009729;28;20200;-68
2020/12/01 07:01:18;;;;;;;36.88;27.77;;;15.80;47.30;;;;;;5002004;28;20668;-66
2020/12/01 07:03:46;;;;;;;37.53;26.67;;;15.80;47.60;;;;;;5006775;28;20200;-66
2020/12/01 07:06:34;;;;;;;34.22;27.15;;;15.90;47.30;;;;;;4999638;28;20232;-67
2020/12/01 07:09:08;;;;;;;38.05;31.20;;;15.90;46.60;;;;;;5017023;28;20196;-66
2020/12/01 07:11:59;;;;;;;36.05;28.58;;;16.00;46.00;;;;;;5011026;28;21040;-75
2020/12/01 07:14:45;;;;;;;33.20;26.08;;;16.00;45.10;;;;;;5005685;28;20224;-63
2020/12/01 07:17:20;;;;;;;29.42;23.75;;;16.10;45.30;;;;;;4998857;28;20243;-67
2020/12/01 07:20:07;;;;;;;25.55;21.50;;;16.10;45.70;;;;;;4998085;28;20195;-67
2020/12/01 07:23:04;;;;;;;23.83;20.65;;;16.20;46.00;;;;;;4998120;28;20657;-66
2020/12/01 07:25:58;;;;;;;23.10;19.85;;;16.20;46.10;;;;;;4999337;28;20209;-67
2020/12/01 07:28:52;;;;;;;22.55;18.85;;;16.20;45.80;;;;;;5012214;28;20200;-68
2020/12/01 07:31:28;;;;;;;22.10;18.70;;;16.20;46.20;;;;;;5008763;28;20209;-69
2020/12/01 07:34:04;;;;;;;23.17;17.92;;;16.30;46.60;;;;;;5008776;28;20282;-67
2020/12/01 07:36:38;;;;;;;21.88;17.20;;;16.20;46.20;;;;;;5018836;28;20208;-66
2020/12/01 07:39:21;;;;;;;24.98;17.08;;;16.20;46.90;;;;;;5005821;28;20185;-66
2020/12/01 07:41:55;;;;;;;21.75;16.83;;;16.20;46.00;;;;;;5007259;28;20192;-66
2020/12/01 07:44:25;;;;;;;19.58;15.73;;;16.20;46.80;;;;;;5009917;28;20278;-68
2020/12/01 07:47:10;;;;;;;21.60;17.75;;;16.40;45.70;;;;;;5001966;28;20248;-66
2020/12/01 07:49:36;;;;;;;23.42;17.08;;;16.50;45.70;;;;;;5008116;28;20302;-66
2020/12/01 07:52:14;;;;;;;21.77;17.25;;;16.60;44.90;;;;;;5016049;28;20808;-66
2020/12/01 07:54:42;;;;;;;20.23;16.55;;;16.80;45.50;;;;;;5010130;28;20303;-66
2020/12/01 07:57:21;;;;;;;19.05;16.25;;;16.90;45.30;;;;;;4998610;28;20842;-66
2020/12/01 07:59:49;;;;;;;19.40;16.33;;;17.00;45.00;;;;;;5005988;28;20487;-66
2020/12/01 08:02:17;;;;;;;19.38;15.55;;;17.00;45.20;;;;;;5006680;28;20500;-65
2020/12/01 08:04:44;;;;;;;17.85;15.35;;;17.10;44.30;;;;;;5010333;28;20212;-66
2020/12/01 08:07:15;;;;;;;17.80;15.40;;;17.10;44.30;;;;;;5017590;28;20677;-67
2020/12/01 08:09:41;;;;;;;18.85;15.05;;;17.10;43.80;;;;;;5001587;28;20197;-65
2020/12/01 08:12:12;;;;;;;21.55;17.42;;;17.10;43.80;;;;;;5009442;28;20185;-65
2020/12/01 08:14:38;;;;;;;18.35;15.65;;;17.10;43.70;;;;;;5014914;28;20917;-65
2020/12/01 08:17:13;;;;;;;20.35;15.90;;;17.20;44.30;;;;;;5001479;28;20282;-65
2020/12/01 08:19:39;;;;;;;18.73;15.23;;;17.20;45.30;;;;;;5000646;28;20250;-65
2020/12/01 08:22:08;;;;;;;17.42;14.38;;;17.30;44.60;;;;;;5008725;28;20189;-66
2020/12/01 08:24:39;;;;;;;15.68;13.80;;;17.30;44.70;;;;;;5000950;28;20295;-66
2020/12/01 08:27:30;;;;;;;16.38;14.55;;;17.40;44.90;;;;;;5004732;28;20212;-66
2020/12/01 08:29:58;;;;;;;15.52;12.68;;;17.40;45.00;;;;;;5002850;28;20215;-65
2020/12/01 08:32:42;;;;;;;18.35;14.75;;;17.50;44.40;;;;;;5020995;28;20188;-66
2020/12/01 08:35:15;;;;;;;15.27;12.95;;;17.40;44.50;;;;;;5012146;28;20359;-66
2020/12/01 08:38:02;;;;;;;15.68;12.95;;;17.50;44.20;;;;;;5012078;28;20195;-71
2020/12/01 08:40:40;;;;;;;15.70;13.50;;;17.50;44.00;;;;;;5011451;28;20238;-66
2020/12/01 08:43:15;;;;;;;24.17;13.70;;;17.50;44.00;;;;;;4999585;28;20227;-64
2020/12/01 08:46:07;;;;;;;57.65;16.33;;;17.50;44.20;;;;;;5000872;28;20214;-67
2020/12/01 08:48:47;;;;;;;51.08;16.38;;;17.50;43.70;;;;;;5019728;28;20664;-66
2020/12/01 08:51:34;;;;;;;63.45;16.85;;;17.50;44.00;;;;;;5004457;28;20191;-67
2020/12/01 08:54:25;;;;;;;61.42;16.02;;;17.50;43.80;;;;;;5004001;28;20224;-64
2020/12/01 08:57:00;;;;;;;44.45;15.07;;;17.50;44.30;;;;;;5012359;28;20299;-64
2020/12/01 08:59:47;;;;;;;41.95;14.50;;;17.60;43.10;;;;;;5014713;28;20177;-64
2020/12/01 09:02:16;;;;;;;46.90;15.60;;;17.60;43.70;;;;;;5013361;28;20262;-64
2020/12/01 09:04:43;;;;;;;45.50;13.55;;;17.60;43.70;;;;;;5016923;28;20703;-65
2020/12/01 09:07:17;;;;;;;42.25;17.27;;;17.60;43.90;;;;;;5007222;28;20424;-65
2020/12/01 09:09:44;;;;;;;31.23;14.65;;;17.60;44.30;;;;;;5008576;28;20230;-64
2020/12/01 09:15:08;;;;;;;27.30;12.93;;;17.80;46.30;;;;;;5003052;28;21072;-65
2020/12/01 09:22:48;;;;;;;23.23;11.98;;;18.00;45.00;;;;;;5008120;28;20932;-65
2020/12/01 09:25:19;;;;;;;24.45;12.02;;;18.00;45.20;;;;;;5007652;28;20181;-65
2020/12/01 09:27:47;;;;;;;18.77;10.85;;;18.00;44.30;;;;;;5001101;28;20657;-65
2020/12/01 09:30:26;;;;;;;21.70;11.48;;;18.10;45.10;;;;;;5016462;28;20207;-65
2020/12/01 09:32:52;;;;;;;21.05;11.25;;;18.10;44.50;;;;;;5018283;28;21010;-65
2020/12/01 09:35:18;;;;;;;20.63;10.40;;;18.10;44.90;;;;;;5007584;28;20775;-65
2020/12/01 09:37:43;;;;;;;17.70;10.65;;;18.10;45.30;;;;;;5013098;28;20263;-66
2020/12/01 09:40:09;;;;;;;18.00;10.35;;;18.10;44.10;;;;;;5009983;28;20200;-64
2020/12/01 09:42:37;;;;;;;18.40;11.05;;;18.10;43.90;;;;;;5010367;28;20181;-66
2020/12/01 09:47:37;;;;;;;17.45;9.35;;;18.10;43.80;;;;;;5015599;28;20204;-66
2020/12/01 09:50:07;;;;;;;14.98;9.68;;;18.10;43.80;;;;;;5005748;28;20215;-65
2020/12/01 09:55:37;;;;;;;16.10;9.68;;;18.20;43.90;;;;;;5006341;28;20236;-65
2020/12/01 10:02:52;;;;;;;12.68;9.88;;;18.20;43.80;;;;;;5007421;28;20191;-66
2020/12/01 10:08:38;;;;;;;14.43;8.82;;;18.20;44.90;;;;;;5013922;28;20204;-69
2020/12/01 10:36:20;;;;;;;13.73;10.60;;;18.50;43.50;;;;;;5001335;28;20228;-64
2020/12/01 10:38:46;;;;;;;14.50;10.02;;;18.50;43.50;;;;;;5008462;28;20199;-64
2020/12/01 10:41:12;;;;;;;12.10;9.00;;;18.50;43.20;;;;;;5008410;28;20187;-65
2020/12/01 10:43:37;;;;;;;10.68;8.65;;;18.50;44.00;;;;;;5007012;28;20204;-64
2020/12/01 10:46:03;;;;;;;12.70;9.45;;;18.60;44.00;;;;;;4999218;28;20212;-63
2020/12/01 10:48:29;;;;;;;16.13;9.63;;;18.50;42.60;;;;;;5014648;28;20184;-63
2020/12/01 10:50:54;;;;;;;13.25;9.98;;;18.50;43.50;;;;;;4999117;28;20297;-63
2020/12/01 10:53:20;;;;;;;14.82;11.48;;;18.50;44.00;;;;;;5009719;28;20199;-64
2020/12/01 10:55:46;;;;;;;13.95;11.80;;;18.50;43.00;;;;;;5008089;28;20217;-64
2020/12/01 10:58:11;;;;;;;16.98;12.45;;;18.50;42.50;;;;;;5008501;28;20215;-65
2020/12/01 11:00:37;;;;;;;17.25;12.23;;;18.50;43.20;;;;;;5010890;28;20846;-64
2020/12/01 11:03:03;;;;;;;16.80;12.00;;;18.50;43.20;;;;;;5009004;28;20195;-66
2020/12/01 11:05:30;;;;;;;24.33;12.82;;;18.50;42.50;;;;;;5016992;28;20212;-64
2020/12/01 11:07:57;;;;;;;28.48;13.00;;;18.60;41.90;;;;;;5009391;28;20185;-63
2020/12/01 11:10:23;;;;;;;35.25;13.57;;;18.50;42.00;;;;;;5001758;28;20259;-65
2020/12/01 11:12:49;;;;;;;40.08;15.10;;;18.60;41.90;;;;;;5002588;28;20199;-65
2020/12/01 11:15:15;;;;;;;32.78;14.10;;;18.60;41.40;;;;;;5009075;28;20205;-65
2020/12/01 11:17:41;;;;;;;28.52;14.60;;;18.60;41.00;;;;;;5009552;28;20743;-65
2020/12/01 11:20:10;;;;;;;42.15;14.65;;;18.50;40.80;;;;;;5004486;28;20267;-66
2020/12/01 11:22:35;;;;;;;32.58;13.27;;;18.50;40.70;;;;;;5008739;28;20185;-61
2020/12/01 11:25:01;;;;;;;44.80;14.00;;;18.40;40.70;;;;;;5016907;28;20245;-68
2020/12/01 11:27:27;;;;;;;54.90;14.90;;;18.50;40.70;;;;;;5010873;28;20209;-65
2020/12/01 11:29:52;;;;;;;59.10;15.32;;;18.40;41.80;;;;;;5004290;28;20205;-64
2020/12/01 11:32:18;;;;;;;53.45;14.05;;;18.50;41.00;;;;;;5009508;28;20193;-65
2020/12/01 11:34:44;;;;;;;58.55;16.60;;;18.50;41.30;;;;;;5014794;28;20282;-63
2020/12/01 11:37:10;;;;;;;125.10;19.88;;;18.40;40.70;;;;;;5011637;28;20672;-61
2020/12/01 11:39:35;;;;;;;252.68;33.95;;;18.40;41.50;;;;;;5012439;28;20184;-63
2020/12/01 11:42:01;;;;;;;329.58;37.30;;;18.40;41.40;;;;;;5001357;28;20189;-65
2020/12/01 11:44:27;;;;;;;659.45;72.85;;;18.40;41.20;;;;;;5007279;28;20739;-65
2020/12/01 11:46:55;;;;;;;491.48;54.83;;;18.50;41.40;;;;;;5020507;28;20223;-67
2020/12/01 11:49:20;;;;;;;581.83;64.85;;;18.50;41.30;;;;;;5006140;28;20200;-62
2020/12/01 11:51:48;;;;;;;572.97;61.50;;;18.50;40.90;;;;;;5010299;28;20187;-69
2020/12/01 11:54:15;;;;;;;561.92;62.47;;;18.50;41.50;;;;;;5016929;28;20302;-64
2020/12/01 11:56:41;;;;;;;507.73;59.63;;;18.60;42.10;;;;;;5003764;28;20213;-65
2020/12/01 11:59:07;;;;;;;529.00;61.55;;;18.60;42.50;;;;;;5012064;28;20202;-63
2020/12/01 12:01:35;;;;;;;533.70;60.63;;;18.70;42.60;;;;;;5012424;28;20736;-66
2020/12/01 12:04:00;;;;;;;522.33;59.35;;;18.70;43.40;;;;;;5011418;28;20192;-65
2020/12/01 12:06:26;;;;;;;438.52;51.20;;;18.70;42.70;;;;;;5005897;28;20290;-64
2020/12/01 12:08:52;;;;;;;428.00;50.65;;;18.60;43.20;;;;;;5000691;28;20188;-62
2020/12/01 12:11:18;;;;;;;354.92;44.42;;;18.60;43.30;;;;;;5013891;28;20227;-63
2020/12/01 12:13:46;;;;;;;278.00;40.30;;;18.60;43.70;;;;;;5011944;28;20195;-70
2020/12/01 12:16:16;;;;;;;186.23;28.08;;;18.50;41.80;;;;;;5016111;28;20209;-74
2020/12/01 12:18:43;;;;;;;164.18;24.25;;;18.50;41.60;;;;;;5011047;28;20194;-67
2020/12/01 12:21:09;;;;;;;133.20;22.77;;;18.40;42.00;;;;;;4999990;28;20931;-69
2020/12/01 12:23:34;;;;;;;123.65;20.88;;;18.30;41.20;;;;;;5001008;28;20177;-72
2020/12/01 12:26:00;;;;;;;107.07;19.38;;;18.30;41.30;;;;;;5010846;28;21086;-67
2020/12/01 12:28:26;;;;;;;127.93;19.92;;;18.30;41.60;;;;;;5005817;28;20177;-71
2020/12/01 12:30:52;;;;;;;98.85;19.33;;;18.20;44.30;;;;;;5014131;28;20811;-69
2020/12/01 12:33:20;;;;;;;99.68;19.30;;;18.20;41.90;;;;;;5019180;28;20188;-68
2020/12/01 12:35:46;;;;;;;77.68;16.98;;;18.20;41.90;;;;;;5011542;28;20220;-64
2020/12/01 12:38:12;;;;;;;79.90;16.30;;;18.20;44.00;;;;;;5007518;28;20245;-64
2020/12/01 12:40:37;;;;;;;78.82;16.50;;;18.30;44.10;;;;;;4999330;28;20185;-64
2020/12/01 12:46:50;;;;;;;45.67;14.75;;;18.30;43.80;;;;;;5001087;28;20304;-62
2020/12/01 12:49:16;;;;;;;49.60;14.10;;;18.40;44.40;;;;;;5014885;28;20284;-63
2020/12/01 12:51:42;;;;;;;40.47;13.75;;;18.50;44.20;;;;;;4999869;28;20196;-61
2020/12/01 12:54:08;;;;;;;36.40;12.52;;;18.50;44.10;;;;;;5016027;28;20768;-63
2020/12/01 12:56:34;;;;;;;38.47;12.00;;;18.50;43.70;;;;;;5007097;28;20893;-65
2020/12/01 12:58:59;;;;;;;37.00;11.13;;;18.50;44.30;;;;;;5017795;28;20183;-64
2020/12/01 13:01:25;;;;;;;31.00;10.88;;;18.60;43.90;;;;;;5014497;28;20307;-65
2020/12/01 13:03:51;;;;;;;26.27;10.63;;;18.50;43.50;;;;;;5002061;28;20215;-65
2020/12/01 13:06:17;;;;;;;23.80;9.93;;;18.50;43.70;;;;;;5007438;28;20213;-65
2020/12/01 13:08:42;;;;;;;22.45;10.23;;;18.60;43.70;;;;;;5007495;28;20213;-63
2020/12/01 13:11:08;;;;;;;25.30;11.05;;;18.60;43.50;;;;;;5003038;28;20192;-64
2020/12/01 13:13:35;;;;;;;24.20;11.13;;;18.60;43.10;;;;;;5019001;28;20189;-64
2020/12/01 13:16:02;;;;;;;22.15;9.90;;;18.60;43.70;;;;;;5007733;28;20204;-64
2020/12/01 13:18:27;;;;;;;21.38;10.23;;;18.70;43.60;;;;;;4998440;28;20195;-65
2020/12/01 13:20:53;;;;;;;21.40;9.23;;;18.70;43.70;;;;;;5016131;28;20200;-64
2020/12/01 13:23:19;;;;;;;17.75;9.77;;;18.70;43.50;;;;;;5005761;28;20242;-65
2020/12/01 13:25:44;;;;;;;20.15;9.98;;;18.70;44.00;;;;;;5008142;28;20212;-64
2020/12/01 13:28:10;;;;;;;14.25;8.93;;;18.80;43.40;;;;;;5018367;28;20540;-64
2020/12/01 13:30:36;;;;;;;17.95;9.63;;;18.80;43.70;;;;;;5002668;28;20192;-64
2020/12/01 13:33:02;;;;;;;13.55;8.57;;;18.80;43.90;;;;;;5005869;28;20180;-63